sensor_id;sensor_type;location;lat;lon;timestamp;temperature;humidity
41922;DHT22;27609;51.002;5.354;2024-01-15T00:02:17;2.30;99.90
41922;DHT22;27609;51.002;5.354;2024-01-15T00:04:43;2.30;99.90
41922;DHT22;27609;51.002;5.354;2024-01-15T00:07:09;2.20;99.90
41922;DHT22;27609;51.002;5.354;2024-01-15T00:09:35;2.30;99.90
41922;DHT22;27609;51.002;5.354;2024-01-15T00:12:01;2.30;99.90
41922;DHT22;27609;51.002;5.354;2024-01-15T00:14:28;2.30;99.90
41922;DHT22;27609;51.002;5.354;2024-01-15T00:16:54;2.20;99.90
41922;DHT22;27609;51.002;5.354;2024-01-15T00:19:24;3.40;99.90
41922;DHT22;27609;51.002;5.354;2024-01-15T00:21:50;2.10;99.90
41922;DHT22;27609;51.002;5.354;2024-01-15T00:24:16;2.10;99.90
41922;DHT22;27609;51.002;5.354;2024-01-15T00:26:42;2.20;99.90
41922;DHT22;27609;51.002;5.354;2024-01-15T00:29:08;2.20;99.90
41922;DHT22;27609;51.002;5.354;2024-01-15T00:31:34;2.20;99.90
41922;DHT22;27609;51.002;5.354;2024-01-15T00:34:00;2.20;99.90
41922;DHT22;27609;51.002;5.354;2024-01-15T00:36:25;2.10;99.90
41922;DHT22;27609;51.002;5.354;2024-01-15T00:38:52;2.00;99.90
41922;DHT22;27609;51.002;5.354;2024-01-15T00:41:18;2.10;99.90
41922;DHT22;27609;51.002;5.354;2024-01-15T00:43:45;2.00;99.90
41922;DHT22;27609;51.002;5.354;2024-01-15T00:46:11;1.90;99.90
41922;DHT22;27609;51.002;5.354;2024-01-15T00:48:37;1.90;99.90
41922;DHT22;27609;51.002;5.354;2024-01-15T00:51:04;2.00;99.90
41922;DHT22;27609;51.002;5.354;2024-01-15T00:53:30;2.00;99.90
41922;DHT22;27609;51.002;5.354;2024-01-15T00:55:56;2.30;99.90
41922;DHT22;27609;51.002;5.354;2024-01-15T00:58:22;1.80;99.90
41922;DHT22;27609;51.002;5.354;2024-01-15T01:00:47;1.70;99.90
41922;DHT22;27609;51.002;5.354;2024-01-15T01:03:13;2.20;99.90
41922;DHT22;27609;51.002;5.354;2024-01-15T01:05:39;1.70;99.90
41922;DHT22;27609;51.002;5.354;2024-01-15T01:08:05;2.50;99.90
41922;DHT22;27609;51.002;5.354;2024-01-15T01:10:30;1.80;99.90
41922;DHT22;27609;51.002;5.354;2024-01-15T01:12:56;1.80;99.90
41922;DHT22;27609;51.002;5.354;2024-01-15T01:15:22;1.90;99.90
41922;DHT22;27609;51.002;5.354;2024-01-15T01:17:48;1.90;99.90
41922;DHT22;27609;51.002;5.354;2024-01-15T01:20:13;1.90;99.90
41922;DHT22;27609;51.002;5.354;2024-01-15T01:22:40;1.90;99.90
41922;DHT22;27609;51.002;5.354;2024-01-15T01:25:06;1.90;99.90
41922;DHT22;27609;51.002;5.354;2024-01-15T01:27:32;1.90;99.90
41922;DHT22;27609;51.002;5.354;2024-01-15T01:29:58;1.80;99.90
41922;DHT22;27609;51.002;5.354;2024-01-15T01:32:24;1.80;99.90
41922;DHT22;27609;51.002;5.354;2024-01-15T01:34:49;1.80;99.90
41922;DHT22;27609;51.002;5.354;2024-01-15T01:37:15;1.70;99.90
41922;DHT22;27609;51.002;5.354;2024-01-15T01:39:42;2.00;99.90
41922;DHT22;27609;51.002;5.354;2024-01-15T01:42:08;1.90;99.90
41922;DHT22;27609;51.002;5.354;2024-01-15T01:44:34;1.70;99.90
41922;DHT22;27609;51.002;5.354;2024-01-15T01:47:00;1.70;99.90
41922;DHT22;27609;51.002;5.354;2024-01-15T01:49:27;1.90;99.90
41922;DHT22;27609;51.002;5.354;2024-01-15T01:51:57;2.80;99.90
41922;DHT22;27609;51.002;5.354;2024-01-15T01:54:23;1.70;99.90
41922;DHT22;27609;51.002;5.354;2024-01-15T01:56:50;1.70;99.90
41922;DHT22;27609;51.002;5.354;2024-01-15T01:59:16;1.80;99.90
41922;DHT22;27609;51.002;5.354;2024-01-15T02:01:43;1.80;99.90
41922;DHT22;27609;51.002;5.354;2024-01-15T02:04:11;1.80;99.90
41922;DHT22;27609;51.002;5.354;2024-01-15T02:06:36;2.20;99.90
41922;DHT22;27609;51.002;5.354;2024-01-15T02:09:03;1.90;99.90
41922;DHT22;27609;51.002;5.354;2024-01-15T02:11:29;2.00;99.90
41922;DHT22;27609;51.002;5.354;2024-01-15T02:13:55;2.00;99.90
41922;DHT22;27609;51.002;5.354;2024-01-15T02:16:20;2.00;99.90
41922;DHT22;27609;51.002;5.354;2024-01-15T02:18:46;2.10;99.90
41922;DHT22;27609;51.002;5.354;2024-01-15T02:21:12;2.40;99.90
41922;DHT22;27609;51.002;5.354;2024-01-15T02:23:38;3.20;99.90
41922;DHT22;27609;51.002;5.354;2024-01-15T02:26:05;2.00;99.90
41922;DHT22;27609;51.002;5.354;2024-01-15T02:28:31;2.10;99.90
41922;DHT22;27609;51.002;5.354;2024-01-15T02:30:57;2.00;99.90
41922;DHT22;27609;51.002;5.354;2024-01-15T02:33:23;1.90;99.90
41922;DHT22;27609;51.002;5.354;2024-01-15T02:35:49;2.00;99.90
41922;DHT22;27609;51.002;5.354;2024-01-15T02:38:17;2.10;99.90
41922;DHT22;27609;51.002;5.354;2024-01-15T02:40:47;2.00;99.90
41922;DHT22;27609;51.002;5.354;2024-01-15T02:43:13;2.10;99.90
41922;DHT22;27609;51.002;5.354;2024-01-15T02:45:39;2.10;99.90
41922;DHT22;27609;51.002;5.354;2024-01-15T02:48:05;2.00;99.90
41922;DHT22;27609;51.002;5.354;2024-01-15T02:50:31;2.20;99.90
41922;DHT22;27609;51.002;5.354;2024-01-15T02:52:57;2.20;99.90
41922;DHT22;27609;51.002;5.354;2024-01-15T02:55:22;2.20;99.90
41922;DHT22;27609;51.002;5.354;2024-01-15T02:57:48;3.10;99.90
41922;DHT22;27609;51.002;5.354;2024-01-15T03:00:14;2.20;99.90
41922;DHT22;27609;51.002;5.354;2024-01-15T03:02:40;2.20;99.90
41922;DHT22;27609;51.002;5.354;2024-01-15T03:05:09;2.20;99.90
41922;DHT22;27609;51.002;5.354;2024-01-15T03:07:35;2.10;99.90
41922;DHT22;27609;51.002;5.354;2024-01-15T03:10:01;2.50;99.90
41922;DHT22;27609;51.002;5.354;2024-01-15T03:12:26;2.00;99.90
41922;DHT22;27609;51.002;5.354;2024-01-15T03:14:52;2.00;99.90
41922;DHT22;27609;51.002;5.354;2024-01-15T03:17:18;2.10;99.90
41922;DHT22;27609;51.002;5.354;2024-01-15T03:19:43;2.10;99.90
41922;DHT22;27609;51.002;5.354;2024-01-15T03:22:09;2.20;99.90
41922;DHT22;27609;51.002;5.354;2024-01-15T03:24:35;2.30;99.90
41922;DHT22;27609;51.002;5.354;2024-01-15T03:27:02;2.30;99.90
41922;DHT22;27609;51.002;5.354;2024-01-15T03:29:27;2.40;99.90
41922;DHT22;27609;51.002;5.354;2024-01-15T03:31:53;2.40;99.90
41922;DHT22;27609;51.002;5.354;2024-01-15T03:34:19;2.30;99.90
41922;DHT22;27609;51.002;5.354;2024-01-15T03:36:45;2.90;99.90
41922;DHT22;27609;51.002;5.354;2024-01-15T03:39:10;2.20;99.90
41922;DHT22;27609;51.002;5.354;2024-01-15T03:41:36;2.20;99.90
41922;DHT22;27609;51.002;5.354;2024-01-15T03:44:02;2.00;99.90
41922;DHT22;27609;51.002;5.354;2024-01-15T03:46:28;2.00;99.90
41922;DHT22;27609;51.002;5.354;2024-01-15T03:48:53;2.00;99.90
41922;DHT22;27609;51.002;5.354;2024-01-15T03:51:19;2.10;99.90
41922;DHT22;27609;51.002;5.354;2024-01-15T03:53:46;2.10;99.90
41922;DHT22;27609;51.002;5.354;2024-01-15T03:56:12;2.50;99.90
41922;DHT22;27609;51.002;5.354;2024-01-15T03:58:38;2.20;99.90
41922;DHT22;27609;51.002;5.354;2024-01-15T04:01:03;2.10;99.90
41922;DHT22;27609;51.002;5.354;2024-01-15T04:03:32;2.10;99.90
41922;DHT22;27609;51.002;5.354;2024-01-15T04:05:58;2.20;99.90
41922;DHT22;27609;51.002;5.354;2024-01-15T04:08:24;2.10;99.90
41922;DHT22;27609;51.002;5.354;2024-01-15T04:10:50;3.20;99.90
41922;DHT22;27609;51.002;5.354;2024-01-15T04:13:16;2.10;99.90
41922;DHT22;27609;51.002;5.354;2024-01-15T04:15:41;2.20;99.90
41922;DHT22;27609;51.002;5.354;2024-01-15T04:18:07;2.10;99.90
41922;DHT22;27609;51.002;5.354;2024-01-15T04:20:33;2.10;99.90
41922;DHT22;27609;51.002;5.354;2024-01-15T04:22:58;2.10;99.90
41922;DHT22;27609;51.002;5.354;2024-01-15T04:25:24;2.20;99.90
41922;DHT22;27609;51.002;5.354;2024-01-15T04:27:50;2.10;99.90
41922;DHT22;27609;51.002;5.354;2024-01-15T04:30:15;2.00;99.90
41922;DHT22;27609;51.002;5.354;2024-01-15T04:32:41;2.00;99.90
41922;DHT22;27609;51.002;5.354;2024-01-15T04:35:07;1.40;99.90
41922;DHT22;27609;51.002;5.354;2024-01-15T04:37:33;2.00;99.90
41922;DHT22;27609;51.002;5.354;2024-01-15T04:39:58;2.10;99.90
41922;DHT22;27609;51.002;5.354;2024-01-15T04:42:24;1.90;99.90
41922;DHT22;27609;51.002;5.354;2024-01-15T04:44:50;1.90;99.90
41922;DHT22;27609;51.002;5.354;2024-01-15T04:47:15;2.10;99.90
41922;DHT22;27609;51.002;5.354;2024-01-15T04:49:42;1.90;99.90
41922;DHT22;27609;51.002;5.354;2024-01-15T04:52:07;2.00;99.90
41922;DHT22;27609;51.002;5.354;2024-01-15T04:54:36;2.10;99.90
41922;DHT22;27609;51.002;5.354;2024-01-15T04:57:01;2.10;99.90
41922;DHT22;27609;51.002;5.354;2024-01-15T04:59:28;2.10;99.90
41922;DHT22;27609;51.002;5.354;2024-01-15T05:01:54;2.00;99.90
41922;DHT22;27609;51.002;5.354;2024-01-15T05:04:20;2.00;99.90
41922;DHT22;27609;51.002;5.354;2024-01-15T05:06:46;2.00;99.90
41922;DHT22;27609;51.002;5.354;2024-01-15T05:09:12;2.00;99.90
41922;DHT22;27609;51.002;5.354;2024-01-15T05:11:39;2.00;99.90
41922;DHT22;27609;51.002;5.354;2024-01-15T05:14:05;2.00;99.90
41922;DHT22;27609;51.002;5.354;2024-01-15T05:16:30;2.00;99.90
41922;DHT22;27609;51.002;5.354;2024-01-15T05:18:56;1.90;99.90
41922;DHT22;27609;51.002;5.354;2024-01-15T05:21:22;1.90;99.90
41922;DHT22;27609;51.002;5.354;2024-01-15T05:23:48;1.90;99.90
41922;DHT22;27609;51.002;5.354;2024-01-15T05:26:13;1.90;99.90
41922;DHT22;27609;51.002;5.354;2024-01-15T05:28:41;1.90;99.90
41922;DHT22;27609;51.002;5.354;2024-01-15T05:31:08;1.90;99.90
41922;DHT22;27609;51.002;5.354;2024-01-15T05:33:34;2.00;99.90
41922;DHT22;27609;51.002;5.354;2024-01-15T05:36:00;1.90;99.90
41922;DHT22;27609;51.002;5.354;2024-01-15T05:38:25;2.40;99.90
41922;DHT22;27609;51.002;5.354;2024-01-15T05:40:51;1.90;99.90
41922;DHT22;27609;51.002;5.354;2024-01-15T05:43:17;1.90;99.90
41922;DHT22;27609;51.002;5.354;2024-01-15T05:45:43;2.00;99.90
41922;DHT22;27609;51.002;5.354;2024-01-15T05:48:10;2.00;99.90
41922;DHT22;27609;51.002;5.354;2024-01-15T05:50:36;2.00;99.90
41922;DHT22;27609;51.002;5.354;2024-01-15T05:53:02;2.00;99.90
41922;DHT22;27609;51.002;5.354;2024-01-15T05:55:28;1.90;99.90
41922;DHT22;27609;51.002;5.354;2024-01-15T05:57:53;1.80;99.90
41922;DHT22;27609;51.002;5.354;2024-01-15T06:00:19;2.30;99.90
41922;DHT22;27609;51.002;5.354;2024-01-15T06:02:45;1.80;99.90
41922;DHT22;27609;51.002;5.354;2024-01-15T06:05:11;1.80;99.90
41922;DHT22;27609;51.002;5.354;2024-01-15T06:07:36;2.90;99.90
41922;DHT22;27609;51.002;5.354;2024-01-15T06:10:03;1.80;99.90
41922;DHT22;27609;51.002;5.354;2024-01-15T06:12:30;1.80;99.90
41922;DHT22;27609;51.002;5.354;2024-01-15T06:14:56;2.70;99.90
41922;DHT22;27609;51.002;5.354;2024-01-15T06:17:22;1.70;99.90
41922;DHT22;27609;51.002;5.354;2024-01-15T06:19:48;1.70;99.90
41922;DHT22;27609;51.002;5.354;2024-01-15T06:22:13;1.60;99.90
41922;DHT22;27609;51.002;5.354;2024-01-15T06:24:39;1.60;99.90
41922;DHT22;27609;51.002;5.354;2024-01-15T06:27:05;1.60;99.90
41922;DHT22;27609;51.002;5.354;2024-01-15T06:29:32;1.60;99.90
41922;DHT22;27609;51.002;5.354;2024-01-15T06:31:57;1.60;99.90
41922;DHT22;27609;51.002;5.354;2024-01-15T06:34:23;1.50;99.90
41922;DHT22;27609;51.002;5.354;2024-01-15T06:36:49;1.50;99.90
41922;DHT22;27609;51.002;5.354;2024-01-15T06:39:15;1.40;99.90
41922;DHT22;27609;51.002;5.354;2024-01-15T06:41:40;1.50;99.90
41922;DHT22;27609;51.002;5.354;2024-01-15T06:44:10;1.60;99.90
41922;DHT22;27609;51.002;5.354;2024-01-15T06:46:42;1.70;99.90
41922;DHT22;27609;51.002;5.354;2024-01-15T06:49:09;1.70;99.90
41922;DHT22;27609;51.002;5.354;2024-01-15T06:51:35;1.70;99.90
41922;DHT22;27609;51.002;5.354;2024-01-15T06:54:01;1.70;99.90
41922;DHT22;27609;51.002;5.354;2024-01-15T06:56:27;1.70;99.90
41922;DHT22;27609;51.002;5.354;2024-01-15T06:58:53;1.70;99.90
41922;DHT22;27609;51.002;5.354;2024-01-15T07:01:19;1.70;99.90
41922;DHT22;27609;51.002;5.354;2024-01-15T07:03:44;1.70;99.90
41922;DHT22;27609;51.002;5.354;2024-01-15T07:06:11;1.70;99.90
41922;DHT22;27609;51.002;5.354;2024-01-15T07:08:37;1.70;99.90
41922;DHT22;27609;51.002;5.354;2024-01-15T07:11:04;1.60;99.90
41922;DHT22;27609;51.002;5.354;2024-01-15T07:13:31;1.60;99.90
41922;DHT22;27609;51.002;5.354;2024-01-15T07:15:56;1.60;99.90
41922;DHT22;27609;51.002;5.354;2024-01-15T07:18:23;1.70;99.90
41922;DHT22;27609;51.002;5.354;2024-01-15T07:20:49;1.80;99.90
41922;DHT22;27609;51.002;5.354;2024-01-15T07:23:14;1.80;99.90
41922;DHT22;27609;51.002;5.354;2024-01-15T07:25:40;1.90;99.90
41922;DHT22;27609;51.002;5.354;2024-01-15T07:28:06;1.90;99.90
41922;DHT22;27609;51.002;5.354;2024-01-15T07:30:32;1.90;99.90
41922;DHT22;27609;51.002;5.354;2024-01-15T07:32:58;1.90;99.90
41922;DHT22;27609;51.002;5.354;2024-01-15T07:35:23;2.00;99.90
41922;DHT22;27609;51.002;5.354;2024-01-15T07:37:49;2.90;99.90
41922;DHT22;27609;51.002;5.354;2024-01-15T07:40:15;2.10;99.90
41922;DHT22;27609;51.002;5.354;2024-01-15T07:42:40;2.00;99.90
41922;DHT22;27609;51.002;5.354;2024-01-15T07:45:08;2.10;99.90
41922;DHT22;27609;51.002;5.354;2024-01-15T07:47:34;2.10;99.90
41922;DHT22;27609;51.002;5.354;2024-01-15T07:50:00;2.10;99.90
41922;DHT22;27609;51.002;5.354;2024-01-15T07:52:26;2.10;99.90
41922;DHT22;27609;51.002;5.354;2024-01-15T07:54:52;2.20;99.90
41922;DHT22;27609;51.002;5.354;2024-01-15T07:57:18;2.00;99.90
41922;DHT22;27609;51.002;5.354;2024-01-15T07:59:43;2.10;99.90
41922;DHT22;27609;51.002;5.354;2024-01-15T08:02:09;2.80;99.90
41922;DHT22;27609;51.002;5.354;2024-01-15T08:04:37;2.30;99.90
41922;DHT22;27609;51.002;5.354;2024-01-15T08:07:04;2.10;99.90
41922;DHT22;27609;51.002;5.354;2024-01-15T08:09:29;2.10;99.90
41922;DHT22;27609;51.002;5.354;2024-01-15T08:11:55;2.10;99.90
41922;DHT22;27609;51.002;5.354;2024-01-15T08:14:21;1.90;99.90
41922;DHT22;27609;51.002;5.354;2024-01-15T08:16:47;1.80;99.90
41922;DHT22;27609;51.002;5.354;2024-01-15T08:19:12;2.00;99.90
41922;DHT22;27609;51.002;5.354;2024-01-15T08:21:39;1.70;99.90
41922;DHT22;27609;51.002;5.354;2024-01-15T08:24:05;1.70;99.90
41922;DHT22;27609;51.002;5.354;2024-01-15T08:26:31;1.70;99.90
41922;DHT22;27609;51.002;5.354;2024-01-15T08:28:58;1.80;99.90
41922;DHT22;27609;51.002;5.354;2024-01-15T08:31:24;1.70;99.90
41922;DHT22;27609;51.002;5.354;2024-01-15T08:33:50;1.70;99.90
41922;DHT22;27609;51.002;5.354;2024-01-15T08:36:15;1.70;99.90
41922;DHT22;27609;51.002;5.354;2024-01-15T08:38:41;2.00;99.90
41922;DHT22;27609;51.002;5.354;2024-01-15T08:41:07;2.00;99.90
41922;DHT22;27609;51.002;5.354;2024-01-15T08:43:34;1.60;99.90
41922;DHT22;27609;51.002;5.354;2024-01-15T08:46:00;1.70;99.90
41922;DHT22;27609;51.002;5.354;2024-01-15T08:48:26;1.70;99.90
41922;DHT22;27609;51.002;5.354;2024-01-15T08:50:53;1.70;99.90
41922;DHT22;27609;51.002;5.354;2024-01-15T08:53:20;1.70;99.90
41922;DHT22;27609;51.002;5.354;2024-01-15T08:55:46;2.50;99.90
41922;DHT22;27609;51.002;5.354;2024-01-15T08:58:11;1.80;99.90
41922;DHT22;27609;51.002;5.354;2024-01-15T09:00:37;1.90;99.90
41922;DHT22;27609;51.002;5.354;2024-01-15T09:03:04;1.90;99.90
41922;DHT22;27609;51.002;5.354;2024-01-15T09:05:29;2.00;99.90
41922;DHT22;27609;51.002;5.354;2024-01-15T09:07:55;2.00;99.90
41922;DHT22;27609;51.002;5.354;2024-01-15T09:10:21;2.00;99.90
41922;DHT22;27609;51.002;5.354;2024-01-15T09:12:47;2.00;99.90
41922;DHT22;27609;51.002;5.354;2024-01-15T09:15:14;2.10;99.90
41922;DHT22;27609;51.002;5.354;2024-01-15T09:17:40;2.20;99.90
41922;DHT22;27609;51.002;5.354;2024-01-15T09:20:06;2.00;99.90
41922;DHT22;27609;51.002;5.354;2024-01-15T09:22:32;2.10;99.90
41922;DHT22;27609;51.002;5.354;2024-01-15T09:24:58;2.70;99.90
41922;DHT22;27609;51.002;5.354;2024-01-15T09:27:24;2.10;99.90
41922;DHT22;27609;51.002;5.354;2024-01-15T09:29:53;2.00;99.90
41922;DHT22;27609;51.002;5.354;2024-01-15T09:32:19;2.40;99.90
41922;DHT22;27609;51.002;5.354;2024-01-15T09:34:46;2.10;99.90
41922;DHT22;27609;51.002;5.354;2024-01-15T09:37:13;2.20;99.90
41922;DHT22;27609;51.002;5.354;2024-01-15T09:39:39;2.30;99.90
41922;DHT22;27609;51.002;5.354;2024-01-15T09:42:05;3.10;99.90
41922;DHT22;27609;51.002;5.354;2024-01-15T09:44:32;2.30;99.90
41922;DHT22;27609;51.002;5.354;2024-01-15T09:46:58;2.50;99.90
41922;DHT22;27609;51.002;5.354;2024-01-15T09:49:24;2.60;99.90
41922;DHT22;27609;51.002;5.354;2024-01-15T09:51:50;2.60;99.90
41922;DHT22;27609;51.002;5.354;2024-01-15T09:54:16;2.70;99.90
41922;DHT22;27609;51.002;5.354;2024-01-15T09:56:46;2.70;99.90
41922;DHT22;27609;51.002;5.354;2024-01-15T09:59:15;2.80;99.90
41922;DHT22;27609;51.002;5.354;2024-01-15T10:01:42;2.80;99.90
41922;DHT22;27609;51.002;5.354;2024-01-15T10:04:12;2.80;99.90
41922;DHT22;27609;51.002;5.354;2024-01-15T10:06:39;2.90;99.90
41922;DHT22;27609;51.002;5.354;2024-01-15T10:09:05;3.00;99.90
41922;DHT22;27609;51.002;5.354;2024-01-15T10:11:33;3.00;99.90
41922;DHT22;27609;51.002;5.354;2024-01-15T10:13:59;3.00;99.90
41922;DHT22;27609;51.002;5.354;2024-01-15T10:16:25;3.00;99.90
41922;DHT22;27609;51.002;5.354;2024-01-15T10:18:51;3.00;99.90
41922;DHT22;27609;51.002;5.354;2024-01-15T10:21:17;3.00;99.90
41922;DHT22;27609;51.002;5.354;2024-01-15T10:23:43;3.00;99.90
41922;DHT22;27609;51.002;5.354;2024-01-15T10:26:09;3.00;99.90
41922;DHT22;27609;51.002;5.354;2024-01-15T10:28:37;3.50;99.90
41922;DHT22;27609;51.002;5.354;2024-01-15T10:31:03;5.20;99.90
41922;DHT22;27609;51.002;5.354;2024-01-15T10:33:30;7.70;99.90
41922;DHT22;27609;51.002;5.354;2024-01-15T10:35:57;9.10;99.90
41922;DHT22;27609;51.002;5.354;2024-01-15T10:38:23;8.80;99.90
41922;DHT22;27609;51.002;5.354;2024-01-15T10:40:54;9.90;99.90
41922;DHT22;27609;51.002;5.354;2024-01-15T10:43:20;10.50;99.90
41922;DHT22;27609;51.002;5.354;2024-01-15T10:45:47;10.00;99.90
41922;DHT22;27609;51.002;5.354;2024-01-15T10:48:14;10.60;99.90
41922;DHT22;27609;51.002;5.354;2024-01-15T10:50:40;11.90;99.90
41922;DHT22;27609;51.002;5.354;2024-01-15T10:53:06;11.90;99.90
41922;DHT22;27609;51.002;5.354;2024-01-15T10:55:35;10.90;99.90
41922;DHT22;27609;51.002;5.354;2024-01-15T10:58:02;11.60;99.90
41922;DHT22;27609;51.002;5.354;2024-01-15T11:00:29;12.30;99.90
41922;DHT22;27609;51.002;5.354;2024-01-15T11:02:55;12.80;99.90
41922;DHT22;27609;51.002;5.354;2024-01-15T11:05:22;14.00;99.90
41922;DHT22;27609;51.002;5.354;2024-01-15T11:07:49;14.50;99.90
41922;DHT22;27609;51.002;5.354;2024-01-15T11:13:03;14.80;99.90
41922;DHT22;27609;51.002;5.354;2024-01-15T11:15:30;11.60;99.90
41922;DHT22;27609;51.002;5.354;2024-01-15T11:18:00;8.70;99.90
41922;DHT22;27609;51.002;5.354;2024-01-15T11:20:27;7.80;99.90
41922;DHT22;27609;51.002;5.354;2024-01-15T11:22:53;7.60;99.90
41922;DHT22;27609;51.002;5.354;2024-01-15T11:25:19;7.40;99.90
41922;DHT22;27609;51.002;5.354;2024-01-15T11:27:47;6.90;99.90
41922;DHT22;27609;51.002;5.354;2024-01-15T11:30:13;6.30;99.90
41922;DHT22;27609;51.002;5.354;2024-01-15T11:32:40;5.80;99.90
41922;DHT22;27609;51.002;5.354;2024-01-15T11:35:09;5.30;99.90
41922;DHT22;27609;51.002;5.354;2024-01-15T11:40:21;4.50;99.90
41922;DHT22;27609;51.002;5.354;2024-01-15T11:42:47;4.50;99.90
41922;DHT22;27609;51.002;5.354;2024-01-15T11:45:21;4.30;99.90
41922;DHT22;27609;51.002;5.354;2024-01-15T11:48:12;4.40;99.90
41922;DHT22;27609;51.002;5.354;2024-01-15T11:50:45;4.50;99.90
41922;DHT22;27609;51.002;5.354;2024-01-15T11:53:36;4.40;99.90
41922;DHT22;27609;51.002;5.354;2024-01-15T11:56:06;4.40;99.90
41922;DHT22;27609;51.002;5.354;2024-01-15T11:58:37;3.90;99.90
41922;DHT22;27609;51.002;5.354;2024-01-15T12:01:03;3.70;99.90
41922;DHT22;27609;51.002;5.354;2024-01-15T12:03:32;3.40;99.90
41922;DHT22;27609;51.002;5.354;2024-01-15T12:05:58;3.00;99.90
41922;DHT22;27609;51.002;5.354;2024-01-15T12:08:25;2.50;99.90
41922;DHT22;27609;51.002;5.354;2024-01-15T12:10:52;2.80;99.90
41922;DHT22;27609;51.002;5.354;2024-01-15T12:13:18;3.00;99.90
41922;DHT22;27609;51.002;5.354;2024-01-15T12:15:46;3.10;99.90
41922;DHT22;27609;51.002;5.354;2024-01-15T12:18:13;3.00;99.90
41922;DHT22;27609;51.002;5.354;2024-01-15T12:20:40;3.00;99.90
41922;DHT22;27609;51.002;5.354;2024-01-15T12:23:05;2.90;99.90
41922;DHT22;27609;51.002;5.354;2024-01-15T12:25:32;2.70;99.90
41922;DHT22;27609;51.002;5.354;2024-01-15T12:27:59;2.70;99.90
41922;DHT22;27609;51.002;5.354;2024-01-15T12:30:29;2.90;99.90
41922;DHT22;27609;51.002;5.354;2024-01-15T12:33:00;3.10;99.90
41922;DHT22;27609;51.002;5.354;2024-01-15T12:35:26;3.30;99.90
41922;DHT22;27609;51.002;5.354;2024-01-15T12:37:54;3.40;99.90
41922;DHT22;27609;51.002;5.354;2024-01-15T12:40:22;3.60;99.90
41922;DHT22;27609;51.002;5.354;2024-01-15T12:42:48;3.70;99.90
41922;DHT22;27609;51.002;5.354;2024-01-15T12:45:15;4.20;99.90
41922;DHT22;27609;51.002;5.354;2024-01-15T12:47:42;4.40;99.90
41922;DHT22;27609;51.002;5.354;2024-01-15T12:50:09;5.20;99.90
41922;DHT22;27609;51.002;5.354;2024-01-15T12:52:35;5.90;99.90
41922;DHT22;27609;51.002;5.354;2024-01-15T12:55:06;5.60;99.90
41922;DHT22;27609;51.002;5.354;2024-01-15T12:57:34;5.50;99.90
41922;DHT22;27609;51.002;5.354;2024-01-15T13:00:00;5.00;99.90
41922;DHT22;27609;51.002;5.354;2024-01-15T13:02:25;4.80;99.90
41922;DHT22;27609;51.002;5.354;2024-01-15T13:04:51;4.90;99.90
41922;DHT22;27609;51.002;5.354;2024-01-15T13:07:17;4.50;99.90
41922;DHT22;27609;51.002;5.354;2024-01-15T13:09:43;4.30;99.90
41922;DHT22;27609;51.002;5.354;2024-01-15T13:12:09;3.80;99.90
41922;DHT22;27609;51.002;5.354;2024-01-15T13:14:35;3.90;99.90
41922;DHT22;27609;51.002;5.354;2024-01-15T13:17:02;4.10;99.90
41922;DHT22;27609;51.002;5.354;2024-01-15T13:19:28;4.20;99.90
41922;DHT22;27609;51.002;5.354;2024-01-15T13:21:54;4.30;99.90
41922;DHT22;27609;51.002;5.354;2024-01-15T13:24:21;4.40;99.90
41922;DHT22;27609;51.002;5.354;2024-01-15T13:26:48;4.00;99.90
41922;DHT22;27609;51.002;5.354;2024-01-15T13:29:13;3.90;99.90
41922;DHT22;27609;51.002;5.354;2024-01-15T13:31:40;4.00;99.90
41922;DHT22;27609;51.002;5.354;2024-01-15T13:34:06;4.20;99.90
41922;DHT22;27609;51.002;5.354;2024-01-15T13:36:32;4.20;99.90
41922;DHT22;27609;51.002;5.354;2024-01-15T13:38:58;4.20;99.90
41922;DHT22;27609;51.002;5.354;2024-01-15T13:41:24;4.10;99.90
41922;DHT22;27609;51.002;5.354;2024-01-15T13:43:53;3.90;99.90
41922;DHT22;27609;51.002;5.354;2024-01-15T13:46:20;4.00;99.90
41922;DHT22;27609;51.002;5.354;2024-01-15T13:48:47;3.00;99.90
41922;DHT22;27609;51.002;5.354;2024-01-15T13:51:13;3.60;99.90
41922;DHT22;27609;51.002;5.354;2024-01-15T13:53:38;3.40;99.90
41922;DHT22;27609;51.002;5.354;2024-01-15T13:56:06;3.60;99.90
41922;DHT22;27609;51.002;5.354;2024-01-15T13:58:32;3.90;99.90
41922;DHT22;27609;51.002;5.354;2024-01-15T14:01:01;3.80;99.90
41922;DHT22;27609;51.002;5.354;2024-01-15T14:03:28;3.80;99.90
41922;DHT22;27609;51.002;5.354;2024-01-15T14:05:54;3.60;99.90
41922;DHT22;27609;51.002;5.354;2024-01-15T14:08:19;3.60;99.90
41922;DHT22;27609;51.002;5.354;2024-01-15T14:10:45;3.70;99.90
41922;DHT22;27609;51.002;5.354;2024-01-15T14:13:11;3.60;99.90
41922;DHT22;27609;51.002;5.354;2024-01-15T14:15:37;3.50;99.90
41922;DHT22;27609;51.002;5.354;2024-01-15T14:18:03;3.40;99.90
41922;DHT22;27609;51.002;5.354;2024-01-15T14:20:29;3.60;99.90
41922;DHT22;27609;51.002;5.354;2024-01-15T14:22:54;3.40;99.90
41922;DHT22;27609;51.002;5.354;2024-01-15T14:25:21;3.30;99.90
41922;DHT22;27609;51.002;5.354;2024-01-15T14:27:47;3.40;99.90
41922;DHT22;27609;51.002;5.354;2024-01-15T14:30:13;3.20;99.90
41922;DHT22;27609;51.002;5.354;2024-01-15T14:32:41;3.20;99.90
41922;DHT22;27609;51.002;5.354;2024-01-15T14:35:07;3.30;99.90
41922;DHT22;27609;51.002;5.354;2024-01-15T14:37:36;3.30;99.90
41922;DHT22;27609;51.002;5.354;2024-01-15T14:40:02;3.00;99.90
41922;DHT22;27609;51.002;5.354;2024-01-15T14:42:29;3.00;99.90
41922;DHT22;27609;51.002;5.354;2024-01-15T14:44:56;3.00;99.90
41922;DHT22;27609;51.002;5.354;2024-01-15T14:47:21;3.10;99.90
41922;DHT22;27609;51.002;5.354;2024-01-15T14:49:49;3.00;99.90
41922;DHT22;27609;51.002;5.354;2024-01-15T14:52:15;3.10;99.90
41922;DHT22;27609;51.002;5.354;2024-01-15T14:54:41;3.20;99.90
41922;DHT22;27609;51.002;5.354;2024-01-15T14:57:07;3.00;99.90
41922;DHT22;27609;51.002;5.354;2024-01-15T14:59:33;3.00;99.90
41922;DHT22;27609;51.002;5.354;2024-01-15T15:01:59;3.10;99.90
41922;DHT22;27609;51.002;5.354;2024-01-15T15:04:24;3.10;99.90
41922;DHT22;27609;51.002;5.354;2024-01-15T15:06:50;3.10;99.90
41922;DHT22;27609;51.002;5.354;2024-01-15T15:09:16;3.20;99.90
41922;DHT22;27609;51.002;5.354;2024-01-15T15:11:42;3.20;99.90
41922;DHT22;27609;51.002;5.354;2024-01-15T15:14:07;2.90;99.90
41922;DHT22;27609;51.002;5.354;2024-01-15T15:16:33;3.10;99.90
41922;DHT22;27609;51.002;5.354;2024-01-15T15:18:59;2.90;99.90
41922;DHT22;27609;51.002;5.354;2024-01-15T15:21:25;2.80;99.90
41922;DHT22;27609;51.002;5.354;2024-01-15T15:23:50;2.90;99.90
41922;DHT22;27609;51.002;5.354;2024-01-15T15:26:16;3.00;99.90
41922;DHT22;27609;51.002;5.354;2024-01-15T15:28:42;2.90;99.90
41922;DHT22;27609;51.002;5.354;2024-01-15T15:31:08;2.90;99.90
41922;DHT22;27609;51.002;5.354;2024-01-15T15:33:34;2.80;99.90
41922;DHT22;27609;51.002;5.354;2024-01-15T15:36:00;2.70;99.90
41922;DHT22;27609;51.002;5.354;2024-01-15T15:38:33;2.70;99.90
41922;DHT22;27609;51.002;5.354;2024-01-15T15:40:59;2.70;99.90
41922;DHT22;27609;51.002;5.354;2024-01-15T15:43:26;2.70;99.90
41922;DHT22;27609;51.002;5.354;2024-01-15T15:45:51;2.80;99.90